Brookhaven, New York
Current Conditions -  °F | °C
As of 9:56 AM on Thursday 23 Oct 2014 (Local Time) from KHWV Reporting Station
Overcast Overcast  
Wind Chill: 54°   Ceiling: 1800
Heat Index: 54°   Visibility: 10mi
Dew Point: 49°   Wind: 20mph
Humidity: 83%   Direction: 350°N
Pressure: 29.64"   Gusts: 29mph
Location:  40.78°N, 72.91°W
Report Text: KHWV 231356Z AUTO 35017G25KT 10SM OVC018 12/09 A2964 RMK AO2 SLP036 T01220094 TSNO
Loading
Personal Weather Stations






























Interactive Weather Map
Tropical Storm Tracking
New forecast layout! Learn more

10-Day Weather Forecast

Advertisements
Track Severe Weather on mobile